sensor_id;sensor_type;location;lat;lon;timestamp;pressure;altitude;pressure_sealevel;temperature;humidity
49030;BME280;43337;52.070;4.508;2024-01-11T00:00:52;103515.13;;;-4.74;100.00
49030;BME280;43337;52.070;4.508;2024-01-11T00:03:17;103517.50;;;-4.77;100.00
49030;BME280;43337;52.070;4.508;2024-01-11T00:05:43;103527.97;;;-4.74;100.00
49030;BME280;43337;52.070;4.508;2024-01-11T00:08:12;103524.31;;;-4.77;100.00
49030;BME280;43337;52.070;4.508;2024-01-11T00:10:38;103520.38;;;-4.85;100.00
49030;BME280;43337;52.070;4.508;2024-01-11T00:13:04;103533.84;;;-4.76;100.00
49030;BME280;43337;52.070;4.508;2024-01-11T00:15:29;103534.59;;;-4.77;100.00
49030;BME280;43337;52.070;4.508;2024-01-11T00:17:56;103519.78;;;-4.81;100.00
49030;BME280;43337;52.070;4.508;2024-01-11T00:20:22;103518.91;;;-4.82;100.00
49030;BME280;43337;52.070;4.508;2024-01-11T00:22:49;103488.09;;;-4.95;100.00
49030;BME280;43337;52.070;4.508;2024-01-11T00:25:14;103522.56;;;-4.78;100.00
49030;BME280;43337;52.070;4.508;2024-01-11T00:27:49;103512.00;;;-4.83;100.00
49030;BME280;43337;52.070;4.508;2024-01-11T00:30:14;103517.22;;;-4.81;100.00
49030;BME280;43337;52.070;4.508;2024-01-11T00:32:40;103515.44;;;-4.82;100.00
49030;BME280;43337;52.070;4.508;2024-01-11T00:35:06;103516.25;;;-4.83;100.00
49030;BME280;43337;52.070;4.508;2024-01-11T00:37:31;103482.28;;;-5.06;100.00
49030;BME280;43337;52.070;4.508;2024-01-11T00:39:56;103504.41;;;-4.95;100.00
49030;BME280;43337;52.070;4.508;2024-01-11T00:42:22;103519.41;;;-4.87;100.00
49030;BME280;43337;52.070;4.508;2024-01-11T01:35:16;103545.09;;;-5.14;100.00
49030;BME280;43337;52.070;4.508;2024-01-11T01:37:41;103503.19;;;-5.40;100.00
49030;BME280;43337;52.070;4.508;2024-01-11T01:40:08;103534.19;;;-5.23;100.00
49030;BME280;43337;52.070;4.508;2024-01-11T01:42:34;103553.28;;;-5.20;100.00
49030;BME280;43337;52.070;4.508;2024-01-11T01:44:59;103546.94;;;-5.25;100.00
49030;BME280;43337;52.070;4.508;2024-01-11T01:47:26;103512.16;;;-5.46;100.00
49030;BME280;43337;52.070;4.508;2024-01-11T01:49:52;103559.19;;;-5.21;100.00
49030;BME280;43337;52.070;4.508;2024-01-11T01:52:19;103544.38;;;-5.25;100.00
49030;BME280;43337;52.070;4.508;2024-01-11T01:54:45;103549.44;;;-5.26;100.00
49030;BME280;43337;52.070;4.508;2024-01-11T01:57:11;103541.53;;;-5.29;100.00
49030;BME280;43337;52.070;4.508;2024-01-11T01:59:38;103551.56;;;-5.32;100.00
49030;BME280;43337;52.070;4.508;2024-01-11T02:02:05;103557.81;;;-5.29;100.00
49030;BME280;43337;52.070;4.508;2024-01-11T02:04:31;103525.91;;;-5.46;100.00
49030;BME280;43337;52.070;4.508;2024-01-11T02:06:57;103506.00;;;-5.61;100.00
49030;BME280;43337;52.070;4.508;2024-01-11T02:09:23;103543.66;;;-5.35;100.00
49030;BME280;43337;52.070;4.508;2024-01-11T02:11:54;103525.78;;;-5.47;100.00
49030;BME280;43337;52.070;4.508;2024-01-11T02:14:25;103564.84;;;-5.26;100.00
49030;BME280;43337;52.070;4.508;2024-01-11T02:16:51;103555.91;;;-5.31;100.00
49030;BME280;43337;52.070;4.508;2024-01-11T02:19:19;103530.63;;;-5.52;100.00
49030;BME280;43337;52.070;4.508;2024-01-11T02:21:46;103567.28;;;-5.28;100.00
49030;BME280;43337;52.070;4.508;2024-01-11T02:24:13;103556.81;;;-5.31;100.00
49030;BME280;43337;52.070;4.508;2024-01-11T02:27:00;103561.84;;;-5.32;100.00
49030;BME280;43337;52.070;4.508;2024-01-11T02:29:27;103560.09;;;-5.33;100.00
49030;BME280;43337;52.070;4.508;2024-01-11T02:31:52;103563.31;;;-5.36;100.00
49030;BME280;43337;52.070;4.508;2024-01-11T02:34:18;103564.78;;;-5.40;100.00
49030;BME280;43337;52.070;4.508;2024-01-11T02:36:45;103580.72;;;-5.32;100.00
49030;BME280;43337;52.070;4.508;2024-01-11T02:39:11;103578.50;;;-5.39;100.00
49030;BME280;43337;52.070;4.508;2024-01-11T02:41:37;103571.81;;;-5.37;100.00
49030;BME280;43337;52.070;4.508;2024-01-11T02:44:02;103577.03;;;-5.35;100.00
49030;BME280;43337;52.070;4.508;2024-01-11T02:46:30;103567.94;;;-5.44;100.00
49030;BME280;43337;52.070;4.508;2024-01-11T02:48:55;103574.38;;;-5.37;100.00
49030;BME280;43337;52.070;4.508;2024-01-11T02:51:21;103579.53;;;-5.37;100.00
49030;BME280;43337;52.070;4.508;2024-01-11T02:53:49;103567.34;;;-5.40;100.00
49030;BME280;43337;52.070;4.508;2024-01-11T02:56:14;103561.63;;;-5.49;100.00
49030;BME280;43337;52.070;4.508;2024-01-11T02:58:39;103573.28;;;-5.41;100.00
49030;BME280;43337;52.070;4.508;2024-01-11T03:01:07;103570.50;;;-5.44;100.00
49030;BME280;43337;52.070;4.508;2024-01-11T03:03:33;103567.06;;;-5.44;100.00
49030;BME280;43337;52.070;4.508;2024-01-11T03:05:59;103571.31;;;-5.45;100.00
49030;BME280;43337;52.070;4.508;2024-01-11T03:08:26;103567.53;;;-5.50;100.00
49030;BME280;43337;52.070;4.508;2024-01-11T03:10:51;103567.53;;;-5.50;100.00
49030;BME280;43337;52.070;4.508;2024-01-11T03:13:17;103524.25;;;-5.70;100.00
49030;BME280;43337;52.070;4.508;2024-01-11T03:15:44;103566.53;;;-5.52;100.00
49030;BME280;43337;52.070;4.508;2024-01-11T03:18:09;103565.53;;;-5.54;100.00
49030;BME280;43337;52.070;4.508;2024-01-11T03:20:35;103560.31;;;-5.55;100.00
49030;BME280;43337;52.070;4.508;2024-01-11T03:23:00;103542.50;;;-5.66;100.00
49030;BME280;43337;52.070;4.508;2024-01-11T03:25:26;103549.31;;;-5.66;100.00
49030;BME280;43337;52.070;4.508;2024-01-11T03:27:54;103566.69;;;-5.62;100.00
49030;BME280;43337;52.070;4.508;2024-01-11T03:30:21;103563.16;;;-5.64;100.00
49030;BME280;43337;52.070;4.508;2024-01-11T03:32:47;103571.09;;;-5.73;100.00
49030;BME280;43337;52.070;4.508;2024-01-11T03:35:12;103541.66;;;-5.91;100.00
49030;BME280;43337;52.070;4.508;2024-01-11T03:37:39;103541.56;;;-5.93;100.00
49030;BME280;43337;52.070;4.508;2024-01-11T03:40:04;103571.69;;;-5.77;100.00
49030;BME280;43337;52.070;4.508;2024-01-11T03:42:31;103581.56;;;-5.70;100.00
49030;BME280;43337;52.070;4.508;2024-01-11T03:44:56;103577.03;;;-5.74;100.00
49030;BME280;43337;52.070;4.508;2024-01-11T03:47:26;103575.16;;;-5.76;100.00
49030;BME280;43337;52.070;4.508;2024-01-11T03:49:57;103569.81;;;-5.79;100.00
49030;BME280;43337;52.070;4.508;2024-01-11T03:52:23;103540.66;;;-5.93;100.00
49030;BME280;43337;52.070;4.508;2024-01-11T03:54:48;103532.88;;;-5.95;100.00
49030;BME280;43337;52.070;4.508;2024-01-11T03:57:14;103571.09;;;-5.73;100.00
49030;BME280;43337;52.070;4.508;2024-01-11T03:59:40;103569.91;;;-5.78;100.00
49030;BME280;43337;52.070;4.508;2024-01-11T04:02:05;103576.13;;;-5.74;100.00
49030;BME280;43337;52.070;4.508;2024-01-11T04:04:32;103571.81;;;-5.75;100.00
49030;BME280;43337;52.070;4.508;2024-01-11T04:06:57;103547.38;;;-5.95;100.00
49030;BME280;43337;52.070;4.508;2024-01-11T04:09:22;103562.38;;;-5.88;100.00
49030;BME280;43337;52.070;4.508;2024-01-11T04:11:48;103571.94;;;-5.85;100.00
49030;BME280;43337;52.070;4.508;2024-01-11T04:14:13;103531.63;;;-6.13;100.00
49030;BME280;43337;52.070;4.508;2024-01-11T04:16:42;103574.63;;;-5.84;100.00
49030;BME280;43337;52.070;4.508;2024-01-11T04:19:10;103565.63;;;-5.91;100.00
49030;BME280;43337;52.070;4.508;2024-01-11T04:21:36;103584.78;;;-5.85;100.00
49030;BME280;43337;52.070;4.508;2024-01-11T04:24:06;103557.13;;;-6.03;100.00
49030;BME280;43337;52.070;4.508;2024-01-11T04:26:32;103574.59;;;-5.97;100.00
49030;BME280;43337;52.070;4.508;2024-01-11T04:28:59;103599.75;;;-5.92;100.00
49030;BME280;43337;52.070;4.508;2024-01-11T04:31:26;103599.44;;;-5.96;100.00
49030;BME280;43337;52.070;4.508;2024-01-11T04:33:53;103609.81;;;-5.95;100.00
49030;BME280;43337;52.070;4.508;2024-01-11T04:36:18;103613.19;;;-5.96;100.00
49030;BME280;43337;52.070;4.508;2024-01-11T04:38:44;103604.97;;;-6.03;100.00
49030;BME280;43337;52.070;4.508;2024-01-11T04:41:12;103613.72;;;-6.00;100.00
49030;BME280;43337;52.070;4.508;2024-01-11T04:43:40;103623.00;;;-6.02;100.00
49030;BME280;43337;52.070;4.508;2024-01-11T04:46:21;103611.72;;;-6.04;100.00
49030;BME280;43337;52.070;4.508;2024-01-11T04:48:49;103605.19;;;-6.12;100.00
49030;BME280;43337;52.070;4.508;2024-01-11T04:51:16;103615.88;;;-6.06;100.00
49030;BME280;43337;52.070;4.508;2024-01-11T04:53:44;103621.00;;;-6.06;100.00
49030;BME280;43337;52.070;4.508;2024-01-11T04:56:11;103631.13;;;-6.07;100.00
49030;BME280;43337;52.070;4.508;2024-01-11T04:58:39;103634.50;;;-6.08;100.00
49030;BME280;43337;52.070;4.508;2024-01-11T05:01:17;103632.97;;;-6.18;100.00
49030;BME280;43337;52.070;4.508;2024-01-11T05:03:45;103631.72;;;-6.11;100.00
49030;BME280;43337;52.070;4.508;2024-01-11T05:06:21;103610.25;;;-6.25;100.00
49030;BME280;43337;52.070;4.508;2024-01-11T05:08:50;103626.25;;;-6.16;100.00
49030;BME280;43337;52.070;4.508;2024-01-11T05:11:21;103621.56;;;-6.10;100.00
49030;BME280;43337;52.070;4.508;2024-01-11T05:13:53;103640.50;;;-6.08;100.00
49030;BME280;43337;52.070;4.508;2024-01-11T05:18:45;103636.16;;;-6.09;100.00
49030;BME280;43337;52.070;4.508;2024-01-11T05:21:10;103650.09;;;-6.05;100.00
49030;BME280;43337;52.070;4.508;2024-01-11T05:23:35;103625.69;;;-6.12;100.00
49030;BME280;43337;52.070;4.508;2024-01-11T05:26:01;103632.16;;;-6.05;100.00
49030;BME280;43337;52.070;4.508;2024-01-11T05:28:29;103588.63;;;-6.29;100.00
49030;BME280;43337;52.070;4.508;2024-01-11T05:30:54;103580.16;;;-6.40;100.00
49030;BME280;43337;52.070;4.508;2024-01-11T05:33:20;103637.84;;;-6.09;100.00
49030;BME280;43337;52.070;4.508;2024-01-11T05:35:46;103635.94;;;-6.12;100.00
49030;BME280;43337;52.070;4.508;2024-01-11T05:38:11;103622.72;;;-6.18;100.00
49030;BME280;43337;52.070;4.508;2024-01-11T05:40:36;103612.81;;;-6.25;100.00
49030;BME280;43337;52.070;4.508;2024-01-11T05:43:02;103640.75;;;-6.17;100.00
49030;BME280;43337;52.070;4.508;2024-01-11T05:45:29;103637.31;;;-6.17;100.00
49030;BME280;43337;52.070;4.508;2024-01-11T05:47:54;103616.28;;;-6.36;100.00
49030;BME280;43337;52.070;4.508;2024-01-11T05:50:19;103647.34;;;-6.20;100.00
49030;BME280;43337;52.070;4.508;2024-01-11T05:52:45;103631.31;;;-6.29;100.00
49030;BME280;43337;52.070;4.508;2024-01-11T05:55:10;103606.03;;;-6.36;100.00
49030;BME280;43337;52.070;4.508;2024-01-11T05:57:35;103639.66;;;-6.20;100.00
49030;BME280;43337;52.070;4.508;2024-01-11T06:00:01;103634.75;;;-6.29;100.00
49030;BME280;43337;52.070;4.508;2024-01-11T06:02:27;103588.31;;;-6.45;100.00
49030;BME280;43337;52.070;4.508;2024-01-11T06:04:53;103593.06;;;-6.38;100.00
49030;BME280;43337;52.070;4.508;2024-01-11T06:07:18;103614.66;;;-6.23;100.00
49030;BME280;43337;52.070;4.508;2024-01-11T06:09:44;103633.97;;;-6.28;100.00
49030;BME280;43337;52.070;4.508;2024-01-11T06:12:10;103636.31;;;-6.31;100.00
49030;BME280;43337;52.070;4.508;2024-01-11T06:14:35;103648.47;;;-6.28;100.00
49030;BME280;43337;52.070;4.508;2024-01-11T06:17:00;103634.44;;;-6.33;100.00
49030;BME280;43337;52.070;4.508;2024-01-11T06:19:26;103634.63;;;-6.30;100.00
49030;BME280;43337;52.070;4.508;2024-01-11T06:21:51;103623.16;;;-6.35;100.00
49030;BME280;43337;52.070;4.508;2024-01-11T06:24:17;103642.31;;;-6.30;100.00
49030;BME280;43337;52.070;4.508;2024-01-11T06:26:42;103643.69;;;-6.35;100.00
49030;BME280;43337;52.070;4.508;2024-01-11T06:29:07;103653.84;;;-6.37;100.00
49030;BME280;43337;52.070;4.508;2024-01-11T06:31:33;103641.13;;;-6.47;100.00
49030;BME280;43337;52.070;4.508;2024-01-11T06:33:58;103638.34;;;-6.50;100.00
49030;BME280;43337;52.070;4.508;2024-01-11T06:36:23;103673.63;;;-6.34;100.00
49030;BME280;43337;52.070;4.508;2024-01-11T06:38:49;103677.88;;;-6.47;100.00
49030;BME280;43337;52.070;4.508;2024-01-11T06:41:16;103695.41;;;-6.29;100.00
49030;BME280;43337;52.070;4.508;2024-01-11T06:43:41;103669.31;;;-6.47;100.00
49030;BME280;43337;52.070;4.508;2024-01-11T06:46:07;103711.09;;;-6.25;100.00
49030;BME280;43337;52.070;4.508;2024-01-11T06:48:35;103716.22;;;-6.25;100.00
49030;BME280;43337;52.070;4.508;2024-01-11T06:51:01;103719.59;;;-6.26;100.00
49030;BME280;43337;52.070;4.508;2024-01-11T06:53:30;103727.38;;;-6.24;100.00
49030;BME280;43337;52.070;4.508;2024-01-11T06:55:55;103742.31;;;-6.19;100.00
49030;BME280;43337;52.070;4.508;2024-01-11T06:58:24;103729.69;;;-6.16;100.00
49030;BME280;43337;52.070;4.508;2024-01-11T07:00:49;103714.78;;;-6.21;100.00
49030;BME280;43337;52.070;4.508;2024-01-11T07:03:16;103714.31;;;-6.16;100.00
49030;BME280;43337;52.070;4.508;2024-01-11T07:05:42;103721.59;;;-6.10;100.00
49030;BME280;43337;52.070;4.508;2024-01-11T07:08:07;103724.38;;;-6.07;100.00
49030;BME280;43337;52.070;4.508;2024-01-11T07:10:34;103695.38;;;-6.18;100.00
49030;BME280;43337;52.070;4.508;2024-01-11T07:12:59;103701.63;;;-6.14;100.00
49030;BME280;43337;52.070;4.508;2024-01-11T07:15:26;103680.91;;;-6.29;100.00
49030;BME280;43337;52.070;4.508;2024-01-11T07:17:54;103731.16;;;-6.07;100.00
49030;BME280;43337;52.070;4.508;2024-01-11T07:20:19;103712.78;;;-6.13;100.00
49030;BME280;43337;52.070;4.508;2024-01-11T07:22:50;103721.81;;;-6.07;100.00
49030;BME280;43337;52.070;4.508;2024-01-11T07:25:16;103714.22;;;-6.05;100.00
49030;BME280;43337;52.070;4.508;2024-01-11T07:27:43;103706.06;;;-6.11;100.00
49030;BME280;43337;52.070;4.508;2024-01-11T07:30:10;103711.88;;;-6.14;100.00
49030;BME280;43337;52.070;4.508;2024-01-11T07:32:36;103655.94;;;-6.43;100.00
49030;BME280;43337;52.070;4.508;2024-01-11T07:35:04;103705.88;;;-6.15;100.00
49030;BME280;43337;52.070;4.508;2024-01-11T07:37:31;103658.41;;;-6.33;100.00
49030;BME280;43337;52.070;4.508;2024-01-11T07:39:57;103653.50;;;-6.42;100.00
49030;BME280;43337;52.070;4.508;2024-01-11T07:42:23;103661.94;;;-6.31;100.00
49030;BME280;43337;52.070;4.508;2024-01-11T07:44:49;103702.06;;;-6.08;100.00
49030;BME280;43337;52.070;4.508;2024-01-11T07:47:15;103675.66;;;-6.19;100.00
49030;BME280;43337;52.070;4.508;2024-01-11T07:49:45;103681.13;;;-6.14;100.00
49030;BME280;43337;52.070;4.508;2024-01-11T07:52:10;103652.56;;;-6.30;100.00
49030;BME280;43337;52.070;4.508;2024-01-11T07:54:35;103676.00;;;-6.14;100.00
49030;BME280;43337;52.070;4.508;2024-01-11T07:57:01;103675.19;;;-6.13;100.00
49030;BME280;43337;52.070;4.508;2024-01-11T07:59:32;103674.88;;;-6.18;100.00
49030;BME280;43337;52.070;4.508;2024-01-11T08:02:00;103667.19;;;-6.29;100.00
49030;BME280;43337;52.070;4.508;2024-01-11T08:04:27;103628.97;;;-6.50;100.00
49030;BME280;43337;52.070;4.508;2024-01-11T08:06:52;103694.91;;;-6.12;100.00
49030;BME280;43337;52.070;4.508;2024-01-11T08:09:21;103703.50;;;-6.11;100.00
49030;BME280;43337;52.070;4.508;2024-01-11T08:11:47;103712.13;;;-6.11;100.00
49030;BME280;43337;52.070;4.508;2024-01-11T08:14:12;103717.91;;;-6.13;100.00
49030;BME280;43337;52.070;4.508;2024-01-11T08:16:39;103725.69;;;-6.12;100.00
49030;BME280;43337;52.070;4.508;2024-01-11T08:19:04;103693.81;;;-6.27;100.00
49030;BME280;43337;52.070;4.508;2024-01-11T08:21:29;103726.16;;;-6.06;100.00
49030;BME280;43337;52.070;4.508;2024-01-11T08:23:55;103725.50;;;-6.03;100.00
49030;BME280;43337;52.070;4.508;2024-01-11T08:26:20;103677.69;;;-6.26;100.00
49030;BME280;43337;52.070;4.508;2024-01-11T08:28:54;103647.03;;;-6.36;100.00
49030;BME280;43337;52.070;4.508;2024-01-11T08:31:19;103687.69;;;-6.18;100.00
49030;BME280;43337;52.070;4.508;2024-01-11T08:33:46;103727.03;;;-5.94;100.00
49030;BME280;43337;52.070;4.508;2024-01-11T08:36:13;103708.75;;;-5.98;100.00
49030;BME280;43337;52.070;4.508;2024-01-11T08:38:39;103703.72;;;-5.97;100.00
49030;BME280;43337;52.070;4.508;2024-01-11T08:41:05;103694.56;;;-5.93;100.00
49030;BME280;43337;52.070;4.508;2024-01-11T08:43:42;103703.25;;;-5.91;100.00
49030;BME280;43337;52.070;4.508;2024-01-11T08:46:08;103722.63;;;-5.83;100.00
49030;BME280;43337;52.070;4.508;2024-01-11T08:48:37;103705.09;;;-5.89;100.00
49030;BME280;43337;52.070;4.508;2024-01-11T08:51:04;103723.75;;;-5.79;100.00
49030;BME280;43337;52.070;4.508;2024-01-11T08:53:29;103728.41;;;-5.74;100.00
49030;BME280;43337;52.070;4.508;2024-01-11T08:55:56;103708.13;;;-5.82;100.00
49030;BME280;43337;52.070;4.508;2024-01-11T08:58:23;103725.75;;;-5.75;100.00
49030;BME280;43337;52.070;4.508;2024-01-11T09:00:49;103697.31;;;-5.90;100.00
49030;BME280;43337;52.070;4.508;2024-01-11T09:03:14;103713.25;;;-5.82;100.00
49030;BME280;43337;52.070;4.508;2024-01-11T09:05:41;103747.22;;;-5.61;100.00
49030;BME280;43337;52.070;4.508;2024-01-11T09:08:09;103741.41;;;-5.59;100.00
49030;BME280;43337;52.070;4.508;2024-01-11T09:10:35;103738.84;;;-5.59;100.00
49030;BME280;43337;52.070;4.508;2024-01-11T09:13:03;103752.50;;;-5.35;100.00
49030;BME280;43337;52.070;4.508;2024-01-11T09:15:32;103751.25;;;-5.28;100.00
49030;BME280;43337;52.070;4.508;2024-01-11T09:18:01;103732.72;;;-5.24;100.00
49030;BME280;43337;52.070;4.508;2024-01-11T09:20:30;103770.47;;;-4.98;100.00
49030;BME280;43337;52.070;4.508;2024-01-11T09:22:56;103782.59;;;-4.84;100.00
49030;BME280;43337;52.070;4.508;2024-01-11T09:25:22;103779.25;;;-4.70;100.00
49030;BME280;43337;52.070;4.508;2024-01-11T09:27:49;103789.28;;;-4.61;100.00
49030;BME280;43337;52.070;4.508;2024-01-11T09:30:14;103788.88;;;-4.54;100.00
49030;BME280;43337;52.070;4.508;2024-01-11T09:32:40;103799.50;;;-4.36;100.00
49030;BME280;43337;52.070;4.508;2024-01-11T09:35:08;103768.72;;;-4.48;100.00
49030;BME280;43337;52.070;4.508;2024-01-11T09:37:34;103793.81;;;-4.19;100.00
49030;BME280;43337;52.070;4.508;2024-01-11T09:39:59;103745.88;;;-4.43;100.00
49030;BME280;43337;52.070;4.508;2024-01-11T09:42:26;103797.25;;;-4.05;100.00
49030;BME280;43337;52.070;4.508;2024-01-11T09:44:56;103783.72;;;-4.02;100.00
49030;BME280;43337;52.070;4.508;2024-01-11T09:47:27;103802.00;;;-3.84;100.00
49030;BME280;43337;52.070;4.508;2024-01-11T09:49:55;103768.66;;;-3.96;100.00
49030;BME280;43337;52.070;4.508;2024-01-11T09:52:23;103821.22;;;-3.66;100.00
49030;BME280;43337;52.070;4.508;2024-01-11T09:54:53;103811.13;;;-3.63;100.00
49030;BME280;43337;52.070;4.508;2024-01-11T09:57:24;103812.28;;;-3.58;100.00
49030;BME280;43337;52.070;4.508;2024-01-11T09:59:54;103832.22;;;-3.42;100.00
49030;BME280;43337;52.070;4.508;2024-01-11T10:02:23;103814.19;;;-3.42;100.00
49030;BME280;43337;52.070;4.508;2024-01-11T10:04:49;103783.75;;;-3.48;100.00
49030;BME280;43337;52.070;4.508;2024-01-11T10:07:24;103801.66;;;-3.36;100.00
49030;BME280;43337;52.070;4.508;2024-01-11T10:09:51;103782.81;;;-3.35;100.00
49030;BME280;43337;52.070;4.508;2024-01-11T10:12:23;103807.34;;;-3.13;100.00
49030;BME280;43337;52.070;4.508;2024-01-11T10:14:53;103812.38;;;-3.02;100.00
49030;BME280;43337;52.070;4.508;2024-01-11T10:17:19;103799.06;;;-2.95;100.00
49030;BME280;43337;52.070;4.508;2024-01-11T10:19:44;103776.84;;;-2.92;100.00
49030;BME280;43337;52.070;4.508;2024-01-11T10:22:10;103804.72;;;-2.72;100.00
49030;BME280;43337;52.070;4.508;2024-01-11T10:24:44;103802.69;;;-2.63;100.00
49030;BME280;43337;52.070;4.508;2024-01-11T10:27:13;103786.59;;;-2.59;100.00
49030;BME280;43337;52.070;4.508;2024-01-11T10:29:40;103796.47;;;-2.52;100.00
49030;BME280;43337;52.070;4.508;2024-01-11T10:32:05;103770.22;;;-2.59;100.00
49030;BME280;43337;52.070;4.508;2024-01-11T10:34:32;103793.28;;;-2.33;100.00
49030;BME280;43337;52.070;4.508;2024-01-11T10:36:58;103793.47;;;-2.30;100.00
49030;BME280;43337;52.070;4.508;2024-01-11T10:39:26;103792.28;;;-2.20;100.00
49030;BME280;43337;52.070;4.508;2024-01-11T10:42:06;103779.38;;;-2.20;100.00
49030;BME280;43337;52.070;4.508;2024-01-11T10:44:38;103787.56;;;-2.12;100.00
49030;BME280;43337;52.070;4.508;2024-01-11T10:47:11;103804.66;;;-2.00;100.00
49030;BME280;43337;52.070;4.508;2024-01-11T10:49:40;103794.66;;;-1.93;100.00
49030;BME280;43337;52.070;4.508;2024-01-11T10:52:11;103797.34;;;-1.92;100.00
49030;BME280;43337;52.070;4.508;2024-01-11T10:54:39;103799.75;;;-1.80;100.00
49030;BME280;43337;52.070;4.508;2024-01-11T10:57:08;103807.72;;;-1.76;100.00
49030;BME280;43337;52.070;4.508;2024-01-11T10:59:36;103793.59;;;-1.82;100.00
49030;BME280;43337;52.070;4.508;2024-01-11T11:02:04;103783.31;;;-1.81;100.00
49030;BME280;43337;52.070;4.508;2024-01-11T11:04:32;103813.66;;;-1.62;100.00
49030;BME280;43337;52.070;4.508;2024-01-11T11:07:01;103821.81;;;-1.54;100.00
49030;BME280;43337;52.070;4.508;2024-01-11T11:09:29;103831.06;;;-1.43;100.00
49030;BME280;43337;52.070;4.508;2024-01-11T11:11:58;103820.84;;;-1.41;100.00
49030;BME280;43337;52.070;4.508;2024-01-11T11:14:24;103834.34;;;-1.31;100.00
49030;BME280;43337;52.070;4.508;2024-01-11T11:16:51;103837.31;;;-1.23;100.00
49030;BME280;43337;52.070;4.508;2024-01-11T11:19:19;103832.44;;;-1.18;100.00
49030;BME280;43337;52.070;4.508;2024-01-11T11:21:45;103821.44;;;-1.14;100.00
49030;BME280;43337;52.070;4.508;2024-01-11T11:24:12;103809.81;;;-1.06;100.00
49030;BME280;43337;52.070;4.508;2024-01-11T11:26:38;103804.16;;;-0.99;100.00
49030;BME280;43337;52.070;4.508;2024-01-11T11:29:04;103758.09;;;-1.23;100.00
49030;BME280;43337;52.070;4.508;2024-01-11T11:31:44;103787.25;;;-0.92;100.00
49030;BME280;43337;52.070;4.508;2024-01-11T11:34:19;103790.41;;;-0.82;100.00
49030;BME280;43337;52.070;4.508;2024-01-11T11:36:50;103771.84;;;-0.91;100.00
49030;BME280;43337;52.070;4.508;2024-01-11T11:39:22;103779.50;;;-0.76;100.00
49030;BME280;43337;52.070;4.508;2024-01-11T11:41:48;103769.81;;;-0.80;100.00
49030;BME280;43337;52.070;4.508;2024-01-11T11:44:16;103790.69;;;-0.59;100.00
49030;BME280;43337;52.070;4.508;2024-01-11T11:46:41;103759.59;;;-0.77;100.00
49030;BME280;43337;52.070;4.508;2024-01-11T11:49:07;103786.81;;;-0.51;100.00
49030;BME280;43337;52.070;4.508;2024-01-11T11:51:33;103750.78;;;-0.64;100.00
49030;BME280;43337;52.070;4.508;2024-01-11T11:54:00;103780.19;;;-0.46;100.00
49030;BME280;43337;52.070;4.508;2024-01-11T11:56:27;103775.94;;;-0.44;100.00
49030;BME280;43337;52.070;4.508;2024-01-11T11:58:53;103774.56;;;-0.37;100.00
49030;BME280;43337;52.070;4.508;2024-01-11T12:01:22;103777.69;;;-0.27;100.00
49030;BME280;43337;52.070;4.508;2024-01-11T12:03:54;103745.13;;;-0.39;100.00
49030;BME280;43337;52.070;4.508;2024-01-11T12:06:23;103749.28;;;-0.25;100.00
49030;BME280;43337;52.070;4.508;2024-01-11T12:08:52;103761.72;;;-0.18;100.00
49030;BME280;43337;52.070;4.508;2024-01-11T12:11:20;103762.31;;;-0.06;100.00
49030;BME280;43337;52.070;4.508;2024-01-11T12:13:49;103752.25;;;0.01;100.00
49030;BME280;43337;52.070;4.508;2024-01-11T12:16:18;103738.28;;;-0.03;100.00
49030;BME280;43337;52.070;4.508;2024-01-11T12:18:44;103724.28;;;-0.07;100.00
49030;BME280;43337;52.070;4.508;2024-01-11T12:21:10;103725.31;;;-0.03;100.00
49030;BME280;43337;52.070;4.508;2024-01-11T12:23:40;103752.22;;;0.18;100.00
49030;BME280;43337;52.070;4.508;2024-01-11T12:26:08;103728.84;;;0.17;100.00
49030;BME280;43337;52.070;4.508;2024-01-11T12:28:38;103731.81;;;0.24;100.00
49030;BME280;43337;52.070;4.508;2024-01-11T12:31:10;103691.13;;;0.04;100.00
49030;BME280;43337;52.070;4.508;2024-01-11T12:33:38;103719.00;;;0.28;100.00
49030;BME280;43337;52.070;4.508;2024-01-11T12:36:06;103716.63;;;0.32;100.00
49030;BME280;43337;52.070;4.508;2024-01-11T12:38:38;103706.41;;;0.35;100.00
49030;BME280;43337;52.070;4.508;2024-01-11T12:41:14;103722.50;;;0.47;100.00
49030;BME280;43337;52.070;4.508;2024-01-11T12:43:41;103716.59;;;0.50;100.00
49030;BME280;43337;52.070;4.508;2024-01-11T12:46:08;103720.25;;;0.55;100.00
49030;BME280;43337;52.070;4.508;2024-01-11T12:48:34;103706.13;;;0.48;100.00
49030;BME280;43337;52.070;4.508;2024-01-11T12:50:59;103714.38;;;0.59;100.00
49030;BME280;43337;52.070;4.508;2024-01-11T12:53:28;103704.75;;;0.57;100.00
49030;BME280;43337;52.070;4.508;2024-01-11T12:56:05;103720.06;;;0.70;100.00
49030;BME280;43337;52.070;4.508;2024-01-11T12:58:38;103711.19;;;0.65;100.00
49030;BME280;43337;52.070;4.508;2024-01-11T13:01:08;103711.31;;;0.68;100.00
49030;BME280;43337;52.070;4.508;2024-01-11T13:03:38;103717.66;;;0.75;100.00
49030;BME280;43337;52.070;4.508;2024-01-11T13:06:03;103700.34;;;0.73;100.00
49030;BME280;43337;52.070;4.508;2024-01-11T13:08:34;103717.13;;;0.82;100.00
49030;BME280;43337;52.070;4.508;2024-01-11T13:11:06;103709.34;;;0.82;100.00
49030;BME280;43337;52.070;4.508;2024-01-11T13:13:34;103710.38;;;0.85;100.00
49030;BME280;43337;52.070;4.508;2024-01-11T13:16:05;103689.34;;;0.79;100.00
49030;BME280;43337;52.070;4.508;2024-01-11T13:18:39;103705.53;;;0.93;100.00
49030;BME280;43337;52.070;4.508;2024-01-11T13:21:04;103714.31;;;0.96;100.00
49030;BME280;43337;52.070;4.508;2024-01-11T13:23:45;103666.88;;;0.80;100.00
49030;BME280;43337;52.070;4.508;2024-01-11T13:26:10;103654.81;;;0.80;100.00
49030;BME280;43337;52.070;4.508;2024-01-11T13:28:36;103688.56;;;1.01;100.00
49030;BME280;43337;52.070;4.508;2024-01-11T13:31:02;103665.66;;;0.91;100.00
49030;BME280;43337;52.070;4.508;2024-01-11T13:33:29;103660.53;;;0.92;100.00